HIDDEN DAM (HENSLEY) (HID)

Elevation: 561' · FRESNO R basin · Operator: US Army Corps of Engineers

Provisional data, subject to change.
Query executed Thursday at 18:36:15   clock

Select a sensor type for a plot of data.
Note: Reservoir Flows are daily averages.

Earlier

Date RES ELE    STORAGE    RES CHG    TOC STO    OUTFLOW    INFLOW    PPT INC    TEMP MN    TEMP MX    WINDLEN    EVP PAN   
 FEET   AF   AF   AF   CFS   CFS   INCHES   DEG F   DEG F   MILES   INCHES  
07/01/2014 450.91 5836 -193 90000 98 4 0.00 23 41 127 0.41
07/02/2014 450.29 5644 -192 90000 98 5 0.00 21 39 125 0.39
07/03/2014 449.88 5519 -125 90000 65 6 0.00 20 39 111 0.38
07/04/2014 449.87 5516 -3 90000 1 3 0.00 21 41 129 0.42
07/05/2014 449.84 5507 -9 90000 0 -0 0.00 21 40 132 0.41
07/06/2014 449.82 5501 -6 90000 0 0 0.00 22 38 102 0.31
07/07/2014 449.82 5501 0 90000 0 2 0.00 25 36 77 0.20
07/08/2014 449.77 5486 -15 90000 0 -4 0.00 23 41 131 0.42
07/09/2014 449.77 5486 0 90000 0 4 0.00 22 40 124 0.40
07/10/2014 449.76 5483 -3 90000 0 2 0.00 19 36 129 0.36
07/11/2014 449.73 5474 -9 90000 0 -1 0.00 19 34 138 0.36
07/12/2014 449.71 5468 -6 90000 0 1 0.00 17 36 141 0.37
07/13/2014 450.21 5619 151 90000 0 80 0.00 21 39 119 0.37
07/14/2014 449.69 5462 -157 90000 0 -76 0.00 24 39 113 0.28
07/15/2014 449.66 5453 -9 90000 -- -- -- -- -- -- --
07/16/2014 449.64 5447 -6 90000 0 1 0.00 22 35 167 0.37
07/17/2014 449.62 5441 -6 90000 0 0 0.00 18 34 125 0.34
07/18/2014 449.59 5432 -9 90000 0 -1 0.00 18 34 137 0.35
07/19/2014 449.58 5429 -3 90000 0 1 0.00 19 36 101 0.31
07/20/2014 449.56 5423 -6 90000 0 1 0.00 23 37 141 0.37
07/21/2014 449.54 5417 -6 90000 0 0 0.00 18 36 118 0.34
07/22/2014 449.51 5408 -9 90000 0 -1 0.00 20 36 134 0.35
07/23/2014 449.50 5405 -3 90000 0 2 0.00 18 33 166 0.35
07/24/2014 449.47 5396 -9 90000 0 -1 0.00 17 36 117 0.35
07/25/2014 449.44 5387 -9 90000 0 -1 0.00 21 39 115 0.37
07/26/2014 449.42 5381 -6 90000 0 1 0.00 23 41 141 0.41
07/27/2014 449.40 5375 -6 90000 0 1 0.00 24 41 131 0.39
07/28/2014 449.37 5366 -9 90000 0 -2 0.00 23 38 93 0.29
07/29/2014 449.35 5360 -6 90000 0 0 0.00 23 39 119 0.35
07/30/2014 449.33 5354 -6 90000 0 -0 0.00 25 40 99 0.30
07/31/2014 -- -- -- -- -- -- -- -- -- -- --

Later | Latest

Warning! This data is preliminary and subject to revision.

Download Data Now Download Data Now | Show HID Map | Plot HID Data | 1 Month HID Data | Real-Time HID Data | HID Info